Norwegian Jewel — C6TX6 — position and weather

sailwx.info

Track history (hours):
 
Tides and Currents Weather Stations Pressure Air Temp Water Temp Dewpoint Dewpoint Depression Visibility Wind Speed Wind Dir Waves Ship Positions

Norwegian Jewel

Last reported at 2019-Aug-22 02:42 UTC. Time now 2019-Aug-24 07:10 UTC.
Position N 58°09' W 135°21'.

Type: Passenger vessel. MMSI: 311827000.

Date/timePositionNaut miles runAvg speedWind from/ knotsBaromVisibWave heightAir tempDewpointWater temp
2019-Aug-22 02:42N 58°09' W 135°21'210.3
2019-Aug-22 02:29N 58°09' W 135°25'2 4.9
2019-Aug-22 02:00N 58°08' W 135°28'0 0.1
2019-Aug-22 01:26N 58°08' W 135°28'0 0.0
2019-Aug-21 22:14N 58°08' W 135°28'0 0.0
2019-Aug-21 18:17N 58°08' W 135°28'0 0.0
2019-Aug-21 17:41N 58°08' W 135°28'0 0.0
2019-Aug-21 17:08N 58°08' W 135°28'0 0.0
2019-Aug-21 16:20N 58°08' W 135°28'  
2019-Aug-19 05:00N 59°36' W 146°06'3718.5 360 / 221016.010.8 15.015.013.0
2019-Aug-19 03:00N 59°30' W 144°54'15612.0 360 / 81017.0 0.5 15.5
2019-Aug-18 14:00N 59°18' W 139°48'123 8.0 090 / 101018.0 14.0
2019-Aug-17 22:36N 58°35' W 136°04'218.3
2019-Aug-17 22:31N 58°37' W 136°04'816.4
2019-Aug-17 22:00N 58°44' W 136°12'713.3
2019-Aug-17 21:30N 58°47' W 136°23'816.8
2019-Aug-17 21:00N 58°52' W 136°37'3 0.7
2019-Aug-17 16:56N 58°53' W 136°42'6 9.5
2019-Aug-17 16:18N 58°51' W 136°31'413.9
2019-Aug-17 16:00N 58°48' W 136°26'713.6
2019-Aug-17 15:30N 58°44' W 136°15'714.9
2019-Aug-17 15:00N 58°38' W 136°06'815.2
2019-Aug-17 14:30N 58°30' W 136°04'612.2
2019-Aug-17 14:01N 58°25' W 135°57'611.3
2019-Aug-17 13:31N 58°20' W 135°57'611.2
2019-Aug-17 13:01N 58°18' W 135°46'611.2
2019-Aug-17 12:30N 58°16' W 135°36'511.0
2019-Aug-17 12:01N 58°14' W 135°27'611.1
2019-Aug-17 11:28N 58°12' W 135°16'  
2019-Aug-15 02:00N 55°36' W 132°18'34 2.7 180 / 101027.0 18.0
2019-Aug-14 13:34N 55°16' W 131°29'317.5
2019-Aug-14 13:25N 55°14' W 131°26'914.9
2019-Aug-14 12:47N 55°09' W 131°12'711.8
2019-Aug-14 12:11N 55°03' W 131°08'212.4
2019-Aug-14 11:59N 55°01' W 131°08'612.9
2019-Aug-14 11:30N 54°54' W 131°07'713.3
2019-Aug-14 11:00N 54°48' W 131°07'713.7
2019-Aug-14 10:30N 54°42' W 131°13'713.2
2019-Aug-14 10:00N 54°35' W 131°17'713.5
2019-Aug-14 09:30N 54°29' W 131°13'713.7
2019-Aug-14 09:00N 54°23' W 131°08'713.6
2019-Aug-14 08:30N 54°16' W 131°04'713.5
2019-Aug-14 08:00N 54°10' W 131°04'713.6
2019-Aug-14 07:30N 54°03' W 131°04'713.5
2019-Aug-14 07:00N 53°56' W 131°04'713.6
2019-Aug-14 06:30N 53°49' W 131°03'713.5
2019-Aug-14 06:00N 53°42' W 131°03'713.5
2019-Aug-14 05:30N 53°36' W 131°02'713.7
2019-Aug-14 05:00N 53°29' W 131°01'713.4
2019-Aug-14 04:27N 53°22' W 130°58'613.6
2019-Aug-14 04:00N 53°16' W 130°54'713.6
2019-Aug-14 03:30N 53°10' W 130°50'713.7
2019-Aug-14 02:59N 53°03' W 130°45'713.5
2019-Aug-14 02:30N 52°57' W 130°41'1019.0
2019-Aug-14 02:00N 52°48' W 130°36'1110.9 200 / 11026.0 16.016.017.0
2019-Aug-14 00:59N 52°38' W 130°28'1513.1
2019-Aug-13 23:50N 52°24' W 130°18'913.6
2019-Aug-13 23:10N 52°16' W 130°12'1513.5
2019-Aug-13 22:06N 52°03' W 130°03'213.5
2019-Aug-13 21:57N 52°01' W 130°02'713.5
2019-Aug-13 21:27N 51°55' W 129°57'613.5
2019-Aug-13 21:00N 51°49' W 129°53'713.5
2019-Aug-13 20:30N 51°43' W 129°48'713.5
2019-Aug-13 20:00N 51°37' W 129°43'713.7
2019-Aug-13 19:30N 51°31' W 129°37'815.5
2019-Aug-13 19:00N 51°25' W 129°30'816.8
2019-Aug-13 18:30N 51°21' W 129°18'817.0
2019-Aug-13 18:00N 51°17' W 129°07'816.8
2019-Aug-13 17:30N 51°13' W 128°54'917.0
2019-Aug-13 17:00N 51°10' W 128°42'917.0
2019-Aug-13 16:30N 51°08' W 128°29'816.8
2019-Aug-13 16:00N 51°05' W 128°16'816.8
2019-Aug-13 15:30N 51°02' W 128°03'917.0
2019-Aug-13 15:00N 50°60' W 127°51'612.6
2019-Aug-13 14:31N 50°56' W 127°42'612.3
2019-Aug-13 14:01N 50°52' W 127°35'612.3
2019-Aug-13 13:29N 50°50' W 127°25'1312.3
2019-Aug-13 12:27N 50°45' W 127°07'612.3
2019-Aug-13 11:55N 50°42' W 126°57'5212.3
2019-Aug-13 07:41N 50°22' W 125°41'212.7
2019-Aug-13 07:30N 50°23' W 125°38'911.3
2019-Aug-13 06:44N 50°19' W 125°25'312.4
2019-Aug-13 06:29N 50°16' W 125°24'612.6
2019-Aug-13 06:00N 50°11' W 125°22'612.5
2019-Aug-13 05:30N 50°05' W 125°17'714.0
2019-Aug-13 05:00N 49°59' W 125°12'714.0
2019-Aug-13 04:30N 49°55' W 125°03'816.9
2019-Aug-13 04:00N 49°50' W 124°53'917.9
2019-Aug-13 03:30N 49°44' W 124°42'1321.3
2019-Aug-13 02:54N 49°36' W 124°27'1718.6
2019-Aug-13 02:00N 49°27' W 124°04'1019.4
2019-Aug-13 01:30N 49°24' W 123°50'1121.0
2019-Aug-13 01:00N 49°21' W 123°35'1020.6
2019-Aug-13 00:30N 49°19' W 123°19'816.2
2019-Aug-13 00:00N 49°18' W 123°07'1 2.2
2019-Aug-12 23:30N 49°17' W 123°07'0 0.0
2019-Aug-12 23:00N 49°17' W 123°07'0 0.0
2019-Aug-12 22:30N 49°17' W 123°07'0 0.0
2019-Aug-12 22:00N 49°17' W 123°07'0 0.0
2019-Aug-12 21:30N 49°17' W 123°07'0 0.0
2019-Aug-12 21:00N 49°17' W 123°07'0 0.0
2019-Aug-12 20:30N 49°17' W 123°07'0 0.0
2019-Aug-12 20:00N 49°17' W 123°07'0 0.0
2019-Aug-12 19:30N 49°17' W 123°07'0 0.0
2019-Aug-12 19:00N 49°17' W 123°07'0 0.0
2019-Aug-12 18:29N 49°17' W 123°07'0 0.0
2019-Aug-12 17:59N 49°17' W 123°07'0 0.0
2019-Aug-12 17:29N 49°17' W 123°07'0 0.0
2019-Aug-12 16:59N 49°17' W 123°07'0 0.0
2019-Aug-12 16:29N 49°17' W 123°07'0 0.0
2019-Aug-12 15:59N 49°17' W 123°07'0 0.0
2019-Aug-12 15:29N 49°17' W 123°07'0 0.0
2019-Aug-12 14:59N 49°17' W 123°07'0 0.0
2019-Aug-12 14:29N 49°17' W 123°07'0 0.0
2019-Aug-12 13:59N 49°17' W 123°07'0 0.0
2019-Aug-12 13:29N 49°17' W 123°07'0 0.0
2019-Aug-12 13:01N 49°17' W 123°07'1 2.9
2019-Aug-12 12:31N 49°19' W 123°08'611.9
2019-Aug-12 12:01N 49°18' W 123°17'611.4
2019-Aug-12 11:30N 49°19' W 123°25'714.2
2019-Aug-12 11:01N 49°19' W 123°36'815.8
2019-Aug-12 10:31N 49°20' W 123°48'815.7
2019-Aug-12 10:00N 49°21' W 124°00'815.5
2019-Aug-12 09:31N 49°24' W 124°12'714.9
2019-Aug-12 09:00N 49°26' W 124°22'713.5
2019-Aug-12 08:30N 49°31' W 124°30'714.4
2019-Aug-12 08:00N 49°36' W 124°38'814.8
2019-Aug-12 07:30N 49°41' W 124°46'815.4
2019-Aug-12 07:00N 49°47' W 124°54'714.8
2019-Aug-12 06:30N 49°52' W 125°02'714.5
2019-Aug-12 06:00N 49°57' W 125°10'4320.0
2019-Aug-12 06:00N 49°54' W 125°06'1123.3 150 / 101023.0 16.0
2019-Aug-12 05:30N 50°04' W 125°15'713.4
2019-Aug-12 05:01N 50°09' W 125°21'5 9.4
2019-Aug-12 04:30N 50°14' W 125°23'713.2
2019-Aug-12 04:00N 50°20' W 125°26'1012.7
2019-Aug-12 03:13N 50°22' W 125°41'413.2
2019-Aug-12 02:57N 50°22' W 125°47'  
Track history (hours):
 
Tides and Currents Weather Stations Pressure Air Temp Water Temp Dewpoint Dewpoint Depression Visibility Wind Speed Wind Dir Waves Ship Positions

Norwegian Jewel

Last reported at 2019-Aug-22 02:42 UTC. Time now 2019-Aug-24 07:10 UTC.
Position N 58°09' W 135°21'.

Type: Passenger vessel. MMSI: 311827000.

Date/timePositionNaut miles runAvg speedWind from/ knotsBaromVisibWave heightAir tempDewpointWater temp
2019-Aug-22 02:42N 58°09' W 135°21'210.3
2019-Aug-22 02:29N 58°09' W 135°25'2 4.9
2019-Aug-22 02:00N 58°08' W 135°28'0 0.1
2019-Aug-22 01:26N 58°08' W 135°28'0 0.0
2019-Aug-21 22:14N 58°08' W 135°28'0 0.0
2019-Aug-21 18:17N 58°08' W 135°28'0 0.0
2019-Aug-21 17:41N 58°08' W 135°28'0 0.0
2019-Aug-21 17:08N 58°08' W 135°28'0 0.0
2019-Aug-21 16:20N 58°08' W 135°28'  
2019-Aug-19 05:00N 59°36' W 146°06'3718.5 360 / 221016.010.8 15.015.013.0
2019-Aug-19 03:00N 59°30' W 144°54'15612.0 360 / 81017.0 0.5 15.5
2019-Aug-18 14:00N 59°18' W 139°48'123 8.0 090 / 101018.0 14.0
2019-Aug-17 22:36N 58°35' W 136°04'218.3
2019-Aug-17 22:31N 58°37' W 136°04'816.4
2019-Aug-17 22:00N 58°44' W 136°12'713.3
2019-Aug-17 21:30N 58°47' W 136°23'816.8
2019-Aug-17 21:00N 58°52' W 136°37'3 0.7
2019-Aug-17 16:56N 58°53' W 136°42'6 9.5
2019-Aug-17 16:18N 58°51' W 136°31'413.9
2019-Aug-17 16:00N 58°48' W 136°26'713.6
2019-Aug-17 15:30N 58°44' W 136°15'714.9
2019-Aug-17 15:00N 58°38' W 136°06'815.2
2019-Aug-17 14:30N 58°30' W 136°04'612.2
2019-Aug-17 14:01N 58°25' W 135°57'611.3
2019-Aug-17 13:31N 58°20' W 135°57'611.2
2019-Aug-17 13:01N 58°18' W 135°46'611.2
2019-Aug-17 12:30N 58°16' W 135°36'511.0
2019-Aug-17 12:01N 58°14' W 135°27'611.1
2019-Aug-17 11:28N 58°12' W 135°16'  
2019-Aug-15 02:00N 55°36' W 132°18'34 2.7 180 / 101027.0 18.0
2019-Aug-14 13:34N 55°16' W 131°29'317.5
2019-Aug-14 13:25N 55°14' W 131°26'914.9
2019-Aug-14 12:47N 55°09' W 131°12'711.8
2019-Aug-14 12:11N 55°03' W 131°08'212.4
2019-Aug-14 11:59N 55°01' W 131°08'612.9
2019-Aug-14 11:30N 54°54' W 131°07'713.3
2019-Aug-14 11:00N 54°48' W 131°07'713.7
2019-Aug-14 10:30N 54°42' W 131°13'713.2
2019-Aug-14 10:00N 54°35' W 131°17'713.5
2019-Aug-14 09:30N 54°29' W 131°13'713.7
2019-Aug-14 09:00N 54°23' W 131°08'713.6
2019-Aug-14 08:30N 54°16' W 131°04'713.5
2019-Aug-14 08:00N 54°10' W 131°04'713.6
2019-Aug-14 07:30N 54°03' W 131°04'713.5
2019-Aug-14 07:00N 53°56' W 131°04'713.6
2019-Aug-14 06:30N 53°49' W 131°03'713.5
2019-Aug-14 06:00N 53°42' W 131°03'713.5
2019-Aug-14 05:30N 53°36' W 131°02'713.7
2019-Aug-14 05:00N 53°29' W 131°01'713.4
2019-Aug-14 04:27N 53°22' W 130°58'613.6
2019-Aug-14 04:00N 53°16' W 130°54'713.6
2019-Aug-14 03:30N 53°10' W 130°50'713.7
2019-Aug-14 02:59N 53°03' W 130°45'713.5
2019-Aug-14 02:30N 52°57' W 130°41'1019.0
2019-Aug-14 02:00N 52°48' W 130°36'1110.9 200 / 11026.0 16.016.017.0
2019-Aug-14 00:59N 52°38' W 130°28'1513.1
2019-Aug-13 23:50N 52°24' W 130°18'913.6
2019-Aug-13 23:10N 52°16' W 130°12'1513.5
2019-Aug-13 22:06N 52°03' W 130°03'213.5
2019-Aug-13 21:57N 52°01' W 130°02'713.5
2019-Aug-13 21:27N 51°55' W 129°57'613.5
2019-Aug-13 21:00N 51°49' W 129°53'713.5
2019-Aug-13 20:30N 51°43' W 129°48'713.5
2019-Aug-13 20:00N 51°37' W 129°43'713.7
2019-Aug-13 19:30N 51°31' W 129°37'815.5
2019-Aug-13 19:00N 51°25' W 129°30'816.8
2019-Aug-13 18:30N 51°21' W 129°18'817.0
2019-Aug-13 18:00N 51°17' W 129°07'816.8
2019-Aug-13 17:30N 51°13' W 128°54'917.0
2019-Aug-13 17:00N 51°10' W 128°42'917.0
2019-Aug-13 16:30N 51°08' W 128°29'816.8
2019-Aug-13 16:00N 51°05' W 128°16'816.8
2019-Aug-13 15:30N 51°02' W 128°03'917.0
2019-Aug-13 15:00N 50°60' W 127°51'612.6
2019-Aug-13 14:31N 50°56' W 127°42'612.3
2019-Aug-13 14:01N 50°52' W 127°35'612.3
2019-Aug-13 13:29N 50°50' W 127°25'1312.3
2019-Aug-13 12:27N 50°45' W 127°07'612.3
2019-Aug-13 11:55N 50°42' W 126°57'5212.3
2019-Aug-13 07:41N 50°22' W 125°41'212.7
2019-Aug-13 07:30N 50°23' W 125°38'911.3
2019-Aug-13 06:44N 50°19' W 125°25'312.4
2019-Aug-13 06:29N 50°16' W 125°24'612.6
2019-Aug-13 06:00N 50°11' W 125°22'612.5
2019-Aug-13 05:30N 50°05' W 125°17'714.0
2019-Aug-13 05:00N 49°59' W 125°12'714.0
2019-Aug-13 04:30N 49°55' W 125°03'816.9
2019-Aug-13 04:00N 49°50' W 124°53'917.9
2019-Aug-13 03:30N 49°44' W 124°42'1321.3
2019-Aug-13 02:54N 49°36' W 124°27'1718.6
2019-Aug-13 02:00N 49°27' W 124°04'1019.4
2019-Aug-13 01:30N 49°24' W 123°50'1121.0
2019-Aug-13 01:00N 49°21' W 123°35'1020.6
2019-Aug-13 00:30N 49°19' W 123°19'816.2
2019-Aug-13 00:00N 49°18' W 123°07'1 2.2
2019-Aug-12 23:30N 49°17' W 123°07'0 0.0
2019-Aug-12 23:00N 49°17' W 123°07'0 0.0
2019-Aug-12 22:30N 49°17' W 123°07'0 0.0
2019-Aug-12 22:00N 49°17' W 123°07'0 0.0
2019-Aug-12 21:30N 49°17' W 123°07'0 0.0
2019-Aug-12 21:00N 49°17' W 123°07'0 0.0
2019-Aug-12 20:30N 49°17' W 123°07'0 0.0
2019-Aug-12 20:00N 49°17' W 123°07'0 0.0
2019-Aug-12 19:30N 49°17' W 123°07'0 0.0
2019-Aug-12 19:00N 49°17' W 123°07'0 0.0
2019-Aug-12 18:29N 49°17' W 123°07'0 0.0
2019-Aug-12 17:59N 49°17' W 123°07'0 0.0
2019-Aug-12 17:29N 49°17' W 123°07'0 0.0
2019-Aug-12 16:59N 49°17' W 123°07'0 0.0
2019-Aug-12 16:29N 49°17' W 123°07'0 0.0
2019-Aug-12 15:59N 49°17' W 123°07'0 0.0
2019-Aug-12 15:29N 49°17' W 123°07'0 0.0
2019-Aug-12 14:59N 49°17' W 123°07'0 0.0
2019-Aug-12 14:29N 49°17' W 123°07'0 0.0
2019-Aug-12 13:59N 49°17' W 123°07'0 0.0
2019-Aug-12 13:29N 49°17' W 123°07'0 0.0
2019-Aug-12 13:01N 49°17' W 123°07'1 2.9
2019-Aug-12 12:31N 49°19' W 123°08'611.9
2019-Aug-12 12:01N 49°18' W 123°17'611.4
2019-Aug-12 11:30N 49°19' W 123°25'714.2
2019-Aug-12 11:01N 49°19' W 123°36'815.8
2019-Aug-12 10:31N 49°20' W 123°48'815.7
2019-Aug-12 10:00N 49°21' W 124°00'815.5
2019-Aug-12 09:31N 49°24' W 124°12'714.9
2019-Aug-12 09:00N 49°26' W 124°22'713.5
2019-Aug-12 08:30N 49°31' W 124°30'714.4
2019-Aug-12 08:00N 49°36' W 124°38'814.8
2019-Aug-12 07:30N 49°41' W 124°46'815.4
2019-Aug-12 07:00N 49°47' W 124°54'714.8
2019-Aug-12 06:30N 49°52' W 125°02'714.5
2019-Aug-12 06:00N 49°57' W 125°10'4320.0
2019-Aug-12 06:00N 49°54' W 125°06'1123.3 150 / 101023.0 16.0
2019-Aug-12 05:30N 50°04' W 125°15'713.4
2019-Aug-12 05:01N 50°09' W 125°21'5 9.4
2019-Aug-12 04:30N 50°14' W 125°23'713.2
2019-Aug-12 04:00N 50°20' W 125°26'1012.7
2019-Aug-12 03:13N 50°22' W 125°41'413.2
2019-Aug-12 02:57N 50°22' W 125°47'  

Dump ship's entire track history